Time;durP1;ratioP1;P1;durP2;ratioP2;P2;SDS_P1;SDS_P2;PMS_P1;PMS_P2;Temp;Humidity;BMP_temperature;BMP_pressure;BME280_temperature;BME280_humidity;BME280_pressure;Samples;Min_cycle;Max_cycle;Signal;HPM_P1;HPM_P2
2022/07/31 00:01:19;;;;;;;;;;;;;;;25.27;74.01;98120.94;5139439;27;19934;-64
2022/07/31 00:03:45;;;;;;;;;;;;;;;25.22;75.02;98120.06;5142176;27;19954;-64
2022/07/31 00:06:12;;;;;;;;;;;;;;;25.23;74.69;98121.66;5142994;27;19962;-64
2022/07/31 00:08:38;;;;;;;;;;;;;;;25.15;75.06;98119.09;5140715;27;19948;-63
2022/07/31 00:11:05;;;;;;;;;;;;;;;25.10;74.65;98114.69;5139340;27;19924;-64
2022/07/31 00:13:31;;;;;;;;;;;;;;;25.21;73.82;98109.50;5132998;27;19963;-65
2022/07/31 00:15:57;;;;;;;;;;;;;;;25.18;74.28;98110.19;5142901;27;19942;-65
2022/07/31 00:18:25;;;;;;;;;;;;;;;25.25;73.95;98113.13;5142887;27;19953;-64
2022/07/31 00:20:51;;;;;;;;;;;;;;;25.26;73.42;98120.16;5131043;27;19935;-64
2022/07/31 00:23:18;;;;;;;;;;;;;;;25.26;73.78;98125.59;5139549;27;19966;-64
2022/07/31 00:25:44;;;;;;;;;;;;;;;25.21;73.44;98115.75;5141929;27;19924;-64
2022/07/31 00:28:10;;;;;;;;;;;;;;;25.13;74.37;98110.44;5142649;27;19992;-64
2022/07/31 00:30:37;;;;;;;;;;;;;;;25.13;74.26;98104.97;5140893;27;19958;-65
2022/07/31 00:33:03;;;;;;;;;;;;;;;25.13;74.24;98110.44;5139128;27;19983;-65
2022/07/31 00:35:31;;;;;;;;;;;;;;;25.17;73.86;98106.66;5139675;27;19931;-64
2022/07/31 00:37:57;;;;;;;;;;;;;;;25.18;73.71;98112.94;5142516;28;19986;-65
2022/07/31 00:40:23;;;;;;;;;;;;;;;25.14;73.89;98109.31;5142526;28;19935;-64
2022/07/31 00:42:50;;;;;;;;;;;;;;;25.13;74.13;98103.03;5123249;28;19923;-64
2022/07/31 00:45:16;;;;;;;;;;;;;;;25.13;74.08;98113.19;5137775;28;19924;-65
2022/07/31 00:47:42;;;;;;;;;;;;;;;25.12;74.09;98104.22;5141253;28;19924;-64
2022/07/31 00:50:10;;;;;;;;;;;;;;;25.12;74.32;98109.66;5142370;28;19995;-64
2022/07/31 00:52:37;;;;;;;;;;;;;;;25.04;74.89;98109.81;5141037;27;19923;-64
2022/07/31 00:55:04;;;;;;;;;;;;;;;24.97;75.31;98106.94;5142993;27;19924;-65
2022/07/31 00:57:31;;;;;;;;;;;;;;;24.94;75.69;98115.84;5143720;27;19967;-65
2022/07/31 00:59:57;;;;;;;;;;;;;;;24.90;76.22;98110.28;5146388;27;20460;-64
2022/07/31 01:02:23;;;;;;;;;;;;;;;24.94;76.04;98118.56;5146227;27;19930;-64
2022/07/31 01:04:50;;;;;;;;;;;;;;;24.98;75.41;98114.78;5142818;27;19979;-64
2022/07/31 01:07:16;;;;;;;;;;;;;;;24.84;76.64;98110.88;5142917;27;19920;-64
2022/07/31 01:09:47;;;;;;;;;;;;;;;24.88;76.31;98109.06;5145213;27;19973;-65
2022/07/31 01:12:16;;;;;;;;;;;;;;;24.94;75.82;98108.44;5140745;27;19930;-64
2022/07/31 01:14:46;;;;;;;;;;;;;;;24.96;75.70;98110.81;5142512;27;19962;-64
2022/07/31 01:17:12;;;;;;;;;;;;;;;24.88;76.39;98109.06;5142496;27;20584;-64
2022/07/31 01:19:40;;;;;;;;;;;;;;;24.92;76.29;98109.91;5144414;27;19931;-63
2022/07/31 01:22:13;;;;;;;;;;;;;;;24.88;77.11;98111.78;5146066;27;19927;-65
2022/07/31 01:24:44;;;;;;;;;;;;;;;24.86;77.31;98109.38;5143633;27;19923;-64
2022/07/31 01:27:19;;;;;;;;;;;;;;;24.87;77.72;98118.38;5142316;27;19931;-64
2022/07/31 01:29:52;;;;;;;;;;;;;;;24.85;78.29;98123.41;5145154;27;19924;-65
2022/07/31 01:32:22;;;;;;;;;;;;;;;24.76;79.54;98111.84;5145905;27;19935;-63
2022/07/31 01:34:52;;;;;;;;;;;;;;;24.75;80.03;98116.50;5142460;27;19934;-64
2022/07/31 01:37:22;;;;;;;;;;;;;;;24.73;80.70;98116.81;5142134;27;19961;-64
2022/07/31 01:39:52;;;;;;;;;;;;;;;24.57;81.86;98112.50;5145466;27;19958;-64
2022/07/31 01:42:19;;;;;;;;;;;;;;;24.24;84.03;98115.47;5139491;27;19928;-64
2022/07/31 01:44:47;;;;;;;;;;;;;;;23.89;87.56;98119.88;5141440;27;19974;-64
2022/07/31 01:47:19;;;;;;;;;;;;;;;24.19;86.03;98115.72;5140761;28;19923;-64
2022/07/31 01:49:47;;;;;;;;;;;;;;;24.40;84.37;98124.50;5143517;28;19949;-65
2022/07/31 01:52:14;;;;;;;;;;;;;;;24.46;84.98;98119.59;5144167;28;19959;-65
2022/07/31 01:54:41;;;;;;;;;;;;;;;24.51;84.73;98111.94;5140720;28;19987;-64
2022/07/31 01:57:09;;;;;;;;;;;;;;;24.57;84.56;98116.00;5140561;28;19924;-63
2022/07/31 01:59:37;;;;;;;;;;;;;;;24.62;84.43;98118.50;5141756;28;19923;-65
2022/07/31 02:02:03;;;;;;;;;;;;;;;24.57;85.34;98120.69;5143880;28;19923;-64
2022/07/31 02:04:32;;;;;;;;;;;;;;;24.60;85.04;98115.31;5142515;28;20287;-64
2022/07/31 02:06:59;;;;;;;;;;;;;;;24.60;85.09;98115.31;5140338;28;19998;-64
2022/07/31 02:09:26;;;;;;;;;;;;;;;24.56;85.11;98111.69;5140397;28;19962;-64
2022/07/31 02:11:54;;;;;;;;;;;;;;;24.61;83.92;98116.91;5141155;28;19988;-63
2022/07/31 02:14:21;;;;;;;;;;;;;;;24.59;83.70;98121.94;5139627;28;19990;-65
2022/07/31 02:16:48;;;;;;;;;;;;;;;24.57;82.92;98113.28;5140537;28;19962;-64
2022/07/31 02:19:15;;;;;;;;;;;;;;;24.55;82.71;98109.31;5140072;28;19930;-64
2022/07/31 02:21:43;;;;;;;;;;;;;;;24.53;82.64;98117.06;5142394;28;19931;-64
2022/07/31 02:24:09;;;;;;;;;;;;;;;24.51;82.45;98133.78;5143689;28;19923;-64
2022/07/31 02:26:36;;;;;;;;;;;;;;;24.46;82.31;98123.13;5141949;28;19958;-64
2022/07/31 02:29:03;;;;;;;;;;;;;;;24.48;82.41;98111.88;5139958;28;19934;-63
2022/07/31 02:31:31;;;;;;;;;;;;;;;24.44;82.36;98127.34;5140568;28;19928;-65
2022/07/31 02:33:57;;;;;;;;;;;;;;;24.41;82.14;98119.84;5143380;28;19958;-64
2022/07/31 02:36:24;;;;;;;;;;;;;;;24.34;82.33;98117.72;5143603;28;19962;-64
2022/07/31 02:38:53;;;;;;;;;;;;;;;24.32;82.18;98113.75;5131336;28;19955;-64
2022/07/31 02:41:21;;;;;;;;;;;;;;;24.34;81.87;98111.47;5139733;28;19999;-64
2022/07/31 02:43:48;;;;;;;;;;;;;;;24.31;81.89;98110.22;5135547;28;19930;-64
2022/07/31 02:46:14;;;;;;;;;;;;;;;24.32;81.29;98111.81;5071922;27;2006230;-64
2022/07/31 02:48:41;;;;;;;;;;;;;;;24.29;81.27;98115.25;5141953;27;19962;-64
2022/07/31 02:51:08;;;;;;;;;;;;;;;24.27;81.60;98119.44;5140801;27;19928;-64
2022/07/31 02:53:36;;;;;;;;;;;;;;;24.26;81.31;98112.41;5141935;27;19920;-64
2022/07/31 02:56:05;;;;;;;;;;;;;;;24.21;81.55;98113.44;5144011;27;19949;-64
2022/07/31 02:58:31;;;;;;;;;;;;;;;24.13;82.04;98095.28;5143146;27;19957;-64
2022/07/31 03:00:58;;;;;;;;;;;;;;;24.15;81.39;98106.63;5140561;27;19951;-64
2022/07/31 03:03:24;;;;;;;;;;;;;;;24.12;81.69;98101.88;5140753;27;20159;-65
2022/07/31 03:05:51;;;;;;;;;;;;;;;24.12;81.58;98099.16;5131848;27;19970;-64
2022/07/31 03:08:17;;;;;;;;;;;;;;;24.15;81.40;98101.19;5140390;27;19924;-65
2022/07/31 03:10:43;;;;;;;;;;;;;;;24.14;81.08;98100.38;5142801;27;19924;-64
2022/07/31 03:13:11;;;;;;;;;;;;;;;24.16;80.98;98100.06;5137283;27;19935;-64
2022/07/31 03:15:38;;;;;;;;;;;;;;;24.13;80.92;98084.38;5140952;27;19947;-65
2022/07/31 03:18:05;;;;;;;;;;;;;;;24.07;81.77;98102.91;5143578;27;19923;-65
2022/07/31 03:20:32;;;;;;;;;;;;;;;24.09;81.35;98099.81;5142361;27;19935;-64
2022/07/31 03:22:59;;;;;;;;;;;;;;;24.06;81.59;98095.84;5140010;27;19966;-64
2022/07/31 03:25:26;;;;;;;;;;;;;;;24.04;81.70;98086.41;5139820;27;19959;-65
2022/07/31 03:27:52;;;;;;;;;;;;;;;24.00;82.29;98101.88;5143420;27;19923;-64
2022/07/31 03:30:23;;;;;;;;;;;;;;;24.00;82.30;98099.16;5143360;27;20018;-64
2022/07/31 03:32:50;;;;;;;;;;;;;;;23.92;82.79;98100.88;5139693;27;20030;-64
2022/07/31 03:35:16;;;;;;;;;;;;;;;23.96;82.66;98100.97;5139876;27;19947;-65
2022/07/31 03:37:43;;;;;;;;;;;;;;;23.96;82.83;98100.97;5142072;27;19995;-65
2022/07/31 03:40:09;;;;;;;;;;;;;;;23.94;82.63;98104.06;5143030;27;20022;-64
2022/07/31 03:42:36;;;;;;;;;;;;;;;23.94;83.08;98093.16;5134438;27;19927;-64
2022/07/31 03:45:03;;;;;;;;;;;;;;;23.92;83.44;98100.09;5139360;27;19978;-64
2022/07/31 03:47:31;;;;;;;;;;;;;;;23.94;83.61;98111.44;5140165;27;19928;-64
2022/07/31 03:49:59;;;;;;;;;;;;;;;23.93;83.88;98102.47;5142961;27;19955;-65
2022/07/31 03:52:26;;;;;;;;;;;;;;;23.99;82.98;98106.53;5142887;27;19959;-64
2022/07/31 03:54:52;;;;;;;;;;;;;;;23.82;83.73;98106.03;5139195;27;19927;-64
2022/07/31 03:57:19;;;;;;;;;;;;;;;23.72;84.65;98112.75;5139329;27;19924;-63
2022/07/31 03:59:46;;;;;;;;;;;;;;;23.47;86.13;98113.91;5142199;27;19927;-64
2022/07/31 04:02:12;;;;;;;;;;;;;;;23.56;85.20;98109.13;5142878;27;19929;-65
2022/07/31 04:04:40;;;;;;;;;;;;;;;23.62;85.55;98107.75;5140798;27;20470;-63
2022/07/31 04:07:07;;;;;;;;;;;;;;;23.61;86.32;98108.91;5139054;27;19924;-64
2022/07/31 04:09:33;;;;;;;;;;;;;;;23.63;86.80;98101.97;5140064;27;19924;-64
2022/07/31 04:11:59;;;;;;;;;;;;;;;23.68;85.28;98103.66;5139097;27;19924;-64
2022/07/31 04:14:26;;;;;;;;;;;;;;;23.67;86.81;98105.59;5139000;27;19920;-64
2022/07/31 04:16:52;;;;;;;;;;;;;;;23.75;86.63;98114.00;5138996;27;19931;-63
2022/07/31 04:19:18;;;;;;;;;;;;;;;23.79;86.32;98107.50;5139096;27;19966;-63
2022/07/31 04:21:46;;;;;;;;;;;;;;;23.76;86.41;98119.13;5141736;27;19924;-64
2022/07/31 04:24:15;;;;;;;;;;;;;;;23.83;86.08;98119.31;5142527;27;19923;-64
2022/07/31 04:26:42;;;;;;;;;;;;;;;23.82;86.50;98115.00;5139981;27;19949;-64
2022/07/31 04:29:08;;;;;;;;;;;;;;;23.74;85.99;98118.66;5138763;27;20015;-64
2022/07/31 04:31:34;;;;;;;;;;;;;;;23.42;88.61;98114.94;5140054;27;19920;-63
2022/07/31 04:34:01;;;;;;;;;;;;;;;23.12;91.10;98124.44;5142395;27;19924;-63
2022/07/31 04:36:28;;;;;;;;;;;;;;;23.22;90.35;98121.25;5141867;27;19932;-64
2022/07/31 04:38:55;;;;;;;;;;;;;;;23.42;89.61;98120.41;5138501;28;19924;-64
2022/07/31 04:41:22;;;;;;;;;;;;;;;23.52;89.67;98119.91;5138726;28;19930;-64
2022/07/31 04:43:48;;;;;;;;;;;;;;;23.56;88.67;98118.09;5134565;28;19930;-64
2022/07/31 04:46:15;;;;;;;;;;;;;;;23.66;88.56;98127.75;5142201;28;19934;-65
2022/07/31 04:48:41;;;;;;;;;;;;;;;23.68;88.38;98122.75;5139831;28;19938;-64
2022/07/31 04:51:07;;;;;;;;;;;;;;;23.67;88.43;98123.09;5138714;28;19931;-64
2022/07/31 04:53:34;;;;;;;;;;;;;;;23.77;86.61;98119.91;5139832;28;19932;-64
2022/07/31 04:58:45;;;;;;;;;;;;;;;23.85;85.42;98119.78;5139219;28;19924;-65
2022/07/31 05:01:12;;;;;;;;;;;;;;;23.77;85.88;98123.41;5138414;28;19958;-65
2022/07/31 05:03:38;;;;;;;;;;;;;;;23.90;85.13;98129.63;5140355;28;19920;-64
2022/07/31 05:06:10;;;;;;;;;;;;;;;23.96;84.73;98123.59;5142042;28;19931;-64
2022/07/31 05:08:37;;;;;;;;;;;;;;;23.92;85.04;98127.38;5140261;28;19924;-64
2022/07/31 05:11:23;;;;;;;;;;;;;;;23.95;84.89;98134.88;5138560;28;19931;-64
2022/07/31 05:13:49;;;;;;;;;;;;;;;23.94;84.81;98138.72;5134457;28;19931;-65
2022/07/31 05:16:16;;;;;;;;;;;;;;;23.97;84.47;98130.66;5141936;28;19947;-64
2022/07/31 05:18:44;;;;;;;;;;;;;;;23.80;85.33;98130.91;5139429;28;19928;-64
2022/07/31 05:21:10;;;;;;;;;;;;;;;23.91;84.31;98133.97;5138207;28;19945;-64
2022/07/31 05:23:36;;;;;;;;;;;;;;;23.91;84.68;98131.25;5139689;28;19969;-63
2022/07/31 05:26:04;;;;;;;;;;;;;;;23.91;85.00;98132.03;5141806;28;19935;-64
2022/07/31 05:28:31;;;;;;;;;;;;;;;23.93;85.23;98131.69;5141228;28;19943;-64
2022/07/31 05:30:58;;;;;;;;;;;;;;;23.97;84.66;98129.84;5137077;28;19971;-64
2022/07/31 05:33:24;;;;;;;;;;;;;;;23.98;85.45;98128.72;5138528;28;19949;-65
2022/07/31 05:35:50;;;;;;;;;;;;;;;24.06;84.08;98128.59;5141858;28;19931;-65
2022/07/31 05:38:17;;;;;;;;;;;;;;;23.92;85.60;98133.59;5141875;27;19923;-64
2022/07/31 05:40:43;;;;;;;;;;;;;;;23.73;88.24;98135.38;5142885;27;19934;-64
2022/07/31 05:43:10;;;;;;;;;;;;;;;23.74;88.60;98121.38;5134966;27;19923;-64
2022/07/31 05:45:38;;;;;;;;;;;;;;;23.67;90.86;98124.66;5143079;27;19934;-64
2022/07/31 05:48:04;;;;;;;;;;;;;;;23.71;88.63;98113.88;5145446;27;19945;-64
2022/07/31 05:50:32;;;;;;;;;;;;;;;23.80;88.42;98117.28;5144565;27;20013;-65
2022/07/31 05:52:59;;;;;;;;;;;;;;;23.91;90.93;98126.59;5141741;27;19927;-65
2022/07/31 05:55:25;;;;;;;;;;;;;;;23.55;92.33;98126.66;5141594;27;19923;-64
2022/07/31 05:57:52;;;;;;;;;;;;;;;23.55;92.79;98127.41;5133237;27;19927;-64
2022/07/31 06:00:19;;;;;;;;;;;;;;;23.61;92.60;98125.28;5141653;27;19924;-66
2022/07/31 06:02:47;;;;;;;;;;;;;;;23.19;97.60;98134.78;5144265;27;19927;-64
2022/07/31 06:05:13;;;;;;;;;;;;;;;23.37;94.71;98127.97;5145179;27;19950;-64
2022/07/31 06:07:40;;;;;;;;;;;;;;;23.41;94.82;98124.25;5142913;27;19968;-64
2022/07/31 06:10:07;;;;;;;;;;;;;;;23.48;94.88;98118.25;5141559;27;20061;-64
2022/07/31 06:12:33;;;;;;;;;;;;;;;23.57;93.66;98127.88;5141159;27;19931;-64
2022/07/31 06:14:59;;;;;;;;;;;;;;;23.71;92.97;98116.59;5141193;27;19946;-64
2022/07/31 06:17:26;;;;;;;;;;;;;;;23.76;90.62;98119.13;5140257;27;19959;-64
2022/07/31 06:19:53;;;;;;;;;;;;;;;23.87;90.25;98131.13;5144820;27;19923;-64
2022/07/31 06:22:20;;;;;;;;;;;;;;;23.89;90.86;98136.25;5143575;27;19924;-64
2022/07/31 06:24:46;;;;;;;;;;;;;;;23.95;89.59;98126.69;5141699;27;19963;-64
2022/07/31 06:27:12;;;;;;;;;;;;;;;24.02;89.51;98130.41;5141099;27;19923;-64
2022/07/31 06:29:39;;;;;;;;;;;;;;;23.99;88.93;98139.28;5142813;27;19994;-64
2022/07/31 06:32:07;;;;;;;;;;;;;;;23.98;89.75;98134.97;5144491;27;19923;-64
2022/07/31 06:34:33;;;;;;;;;;;;;;;23.82;90.48;98144.22;5143515;27;19934;-64
2022/07/31 06:37:01;;;;;;;;;;;;;;;23.85;90.03;98138.88;5140911;27;19927;-64
2022/07/31 06:39:27;;;;;;;;;;;;;;;23.64;90.76;98143.69;5140978;27;19934;-64
2022/07/31 06:41:54;;;;;;;;;;;;;;;23.85;89.67;98149.78;5141642;27;19991;-64
2022/07/31 06:44:20;;;;;;;;;;;;;;;23.96;89.36;98144.63;5140138;27;19927;-65
2022/07/31 06:46:47;;;;;;;;;;;;;;;24.05;89.55;98150.75;5139867;27;19955;-64
2022/07/31 06:49:14;;;;;;;;;;;;;;;24.10;89.90;98147.78;5139590;27;19923;-65
2022/07/31 06:51:40;;;;;;;;;;;;;;;23.95;91.09;98143.06;5141462;27;19963;-64
2022/07/31 06:54:09;;;;;;;;;;;;;;;23.94;90.37;98145.00;5144167;27;19928;-65
2022/07/31 06:56:36;;;;;;;;;;;;;;;24.01;89.90;98142.47;5142656;27;19994;-64
2022/07/31 06:59:03;;;;;;;;;;;;;;;23.89;92.59;98147.94;5140535;27;20613;-64
2022/07/31 07:01:29;;;;;;;;;;;;;;;23.53;94.18;98147.97;5140810;27;19924;-64
2022/07/31 07:03:56;;;;;;;;;;;;;;;23.71;93.04;98143.06;5143963;27;19984;-65
2022/07/31 07:06:22;;;;;;;;;;;;;;;23.88;93.47;98142.84;5143889;27;20002;-65
2022/07/31 07:08:49;;;;;;;;;;;;;;;23.93;92.09;98142.59;5140507;27;19935;-64
2022/07/31 07:11:17;;;;;;;;;;;;;;;23.96;93.78;98144.63;5140318;27;19924;-64
2022/07/31 07:13:44;;;;;;;;;;;;;;;23.63;95.19;98136.63;5135454;27;19927;-64
2022/07/31 07:16:10;;;;;;;;;;;;;;;23.63;94.43;98144.81;5143863;27;19930;-64
2022/07/31 07:18:37;;;;;;;;;;;;;;;23.84;92.62;98150.91;5142140;27;20003;-64
2022/07/31 07:21:04;;;;;;;;;;;;;;;23.95;92.75;98135.66;5139881;27;20174;-64
2022/07/31 07:23:31;;;;;;;;;;;;;;;24.04;91.01;98144.53;5140614;27;19946;-64
2022/07/31 07:25:58;;;;;;;;;;;;;;;24.03;91.55;98147.56;5143500;27;19958;-65
2022/07/31 07:28:25;;;;;;;;;;;;;;;23.70;94.80;98136.06;5143530;27;20002;-64
2022/07/31 07:30:52;;;;;;;;;;;;;;;23.96;93.15;98139.16;5131386;27;19939;-64
2022/07/31 07:33:18;;;;;;;;;;;;;;;23.64;96.46;98149.13;5139918;27;19959;-64
2022/07/31 07:35:44;;;;;;;;;;;;;;;23.27;97.97;98151.03;5142112;27;19923;-65
2022/07/31 07:38:11;;;;;;;;;;;;;;;23.22;98.96;98142.25;5143235;27;19930;-65
2022/07/31 07:40:39;;;;;;;;;;;;;;;23.49;95.37;98144.34;5141547;27;19930;-65
2022/07/31 07:43:05;;;;;;;;;;;;;;;23.81;93.50;98137.16;5132195;27;19923;-65
2022/07/31 07:45:33;;;;;;;;;;;;;;;24.09;90.96;98140.75;5139903;27;19979;-63
2022/07/31 07:47:59;;;;;;;;;;;;;;;24.12;92.34;98143.59;5143126;27;20397;-64
2022/07/31 07:50:26;;;;;;;;;;;;;;;24.21;90.75;98140.72;5143006;27;19930;-64
2022/07/31 07:52:52;;;;;;;;;;;;;;;24.21;90.90;98140.72;5131033;27;19989;-64
2022/07/31 07:55:18;;;;;;;;;;;;;;;24.29;90.11;98131.63;5139319;27;19959;-64
2022/07/31 07:57:45;;;;;;;;;;;;;;;24.27;91.24;98133.88;5141890;27;19951;-64
2022/07/31 08:00:12;;;;;;;;;;;;;;;24.32;90.68;98130.13;5142962;27;19929;-64
2022/07/31 08:02:41;;;;;;;;;;;;;;;24.27;92.57;98128.44;5140636;27;19927;-64
2022/07/31 08:05:07;;;;;;;;;;;;;;;24.07;93.36;98132.13;5139372;27;19987;-63
2022/07/31 08:07:35;;;;;;;;;;;;;;;23.96;94.28;98126.34;5140527;27;19927;-64
2022/07/31 08:10:02;;;;;;;;;;;;;;;24.13;92.43;98126.09;5142650;27;19954;-64
2022/07/31 08:12:28;;;;;;;;;;;;;;;24.09;94.16;98122.44;5134860;27;19943;-64
2022/07/31 08:14:55;;;;;;;;;;;;;;;23.95;95.39;98122.00;5138949;27;19996;-64
2022/07/31 08:17:21;;;;;;;;;;;;;;;23.97;94.28;98119.75;5139064;27;20070;-64
2022/07/31 08:19:49;;;;;;;;;;;;;;;24.25;91.56;98111.63;5141908;27;19955;-63
2022/07/31 08:22:15;;;;;;;;;;;;;;;24.40;91.03;98110.06;5142594;27;19962;-64
2022/07/31 08:24:41;;;;;;;;;;;;;;;24.51;88.23;98113.91;5140200;27;19924;-65
2022/07/31 08:27:26;;;;;;;;;;;;;;;24.70;87.67;98108.53;5138856;27;19958;-64
2022/07/31 08:29:54;;;;;;;;;;;;;;;24.64;87.45;98108.00;5130463;27;20126;-64
2022/07/31 08:32:20;;;;;;;;;;;;;;;24.72;87.84;98103.53;5138956;27;19955;-64
2022/07/31 08:34:46;;;;;;;;;;;;;;;24.77;86.50;98102.47;5141581;27;19927;-64
2022/07/31 08:37:18;;;;;;;;;;;;;;;24.69;86.75;98091.38;5142353;27;19979;-63
2022/07/31 08:39:44;;;;;;;;;;;;;;;24.73;86.44;98089.50;5139545;27;19928;-64
2022/07/31 08:42:11;;;;;;;;;;;;;;;24.71;87.16;98091.81;5138678;28;19926;-64
2022/07/31 08:44:37;;;;;;;;;;;;;;;24.44;89.20;98095.38;5138410;28;19923;-64
2022/07/31 08:47:05;;;;;;;;;;;;;;;24.48;89.58;98096.25;5138460;28;19966;-66
2022/07/31 08:49:33;;;;;;;;;;;;;;;24.46;88.57;98101.28;5139402;28;19931;-64
2022/07/31 08:52:00;;;;;;;;;;;;;;;24.16;85.44;98094.59;5142143;28;20710;-65
2022/07/31 08:54:29;;;;;;;;;;;;;;;24.54;86.55;98100.31;5140725;28;19961;-64
2022/07/31 08:56:55;;;;;;;;;;;;;;;24.25;83.89;98097.97;5138525;28;19970;-64
2022/07/31 08:59:22;;;;;;;;;;;;;;;24.35;85.65;98094.75;5138552;28;20058;-64
2022/07/31 09:01:49;;;;;;;;;;;;;;;24.39;83.90;98097.53;5141225;28;19967;-64
2022/07/31 09:04:15;;;;;;;;;;;;;;;24.30;85.56;98105.91;5142104;28;19945;-64
2022/07/31 09:06:41;;;;;;;;;;;;;;;24.30;86.24;98088.72;5139713;28;19923;-66
2022/07/31 09:09:08;;;;;;;;;;;;;;;24.85;84.40;98093.38;5138627;28;19924;-64
2022/07/31 09:11:45;;;;;;;;;;;;;;;25.14;81.69;98087.44;5139583;28;19927;-65
2022/07/31 09:14:12;;;;;;;;;;;;;;;25.28;81.74;98082.34;5137626;27;19923;-64
2022/07/31 09:16:44;;;;;;;;;;;;;;;25.11;81.01;98078.00;5143962;27;19987;-64
2022/07/31 09:19:11;;;;;;;;;;;;;;;25.02;80.83;98071.13;5142392;27;19947;-64
2022/07/31 09:21:41;;;;;;;;;;;;;;;25.18;80.22;98072.72;5143944;27;19987;-64
2022/07/31 09:24:09;;;;;;;;;;;;;;;24.86;78.11;98070.34;5146008;27;19923;-65
2022/07/31 09:26:39;;;;;;;;;;;;;;;25.00;80.72;98065.25;5144265;27;19924;-64
2022/07/31 09:29:07;;;;;;;;;;;;;;;25.38;77.80;98067.31;5142186;27;19924;-65
2022/07/31 09:31:34;;;;;;;;;;;;;;;25.45;77.84;98064.72;5142828;27;20651;-64
2022/07/31 09:34:01;;;;;;;;;;;;;;;25.44;76.42;98061.19;5145468;27;19962;-64
2022/07/31 09:36:28;;;;;;;;;;;;;;;25.55;73.03;98047.81;5145086;27;20475;-65
2022/07/31 09:38:55;;;;;;;;;;;;;;;25.41;75.55;98056.44;5140568;27;19971;-64
2022/07/31 09:41:22;;;;;;;;;;;;;;;25.45;73.52;98040.13;5141856;27;19924;-65
2022/07/31 09:43:55;;;;;;;;;;;;;;;25.52;75.07;98035.66;5137413;27;19931;-65
2022/07/31 09:46:21;;;;;;;;;;;;;;;25.96;74.39;98036.19;5145090;27;19930;-65
2022/07/31 09:48:49;;;;;;;;;;;;;;;25.83;70.34;98028.47;5142252;27;19924;-65
2022/07/31 09:51:16;;;;;;;;;;;;;;;25.62;71.54;98026.88;5140552;27;19928;-67
2022/07/31 09:53:44;;;;;;;;;;;;;;;25.95;71.02;98020.13;5143670;27;19927;-65
2022/07/31 09:56:13;;;;;;;;;;;;;;;26.16;71.68;98015.88;5145098;27;19919;-64
2022/07/31 09:58:40;;;;;;;;;;;;;;;26.56;69.89;98018.19;5143127;27;19923;-65
2022/07/31 10:01:09;;;;;;;;;;;;;;;26.55;67.63;98013.88;5141365;27;19924;-64
2022/07/31 10:03:36;;;;;;;;;;;;;;;26.77;67.84;98018.53;5142605;27;19966;-65
2022/07/31 10:06:03;;;;;;;;;;;;;;;26.62;65.28;98004.97;5144931;27;20380;-66
2022/07/31 10:08:33;;;;;;;;;;;;;;;26.61;64.92;98004.19;5144247;27;20007;-65
2022/07/31 10:11:01;;;;;;;;;;;;;;;26.37;64.71;97993.56;5140031;27;19980;-64
2022/07/31 10:13:28;;;;;;;;;;;;;;;26.33;65.00;98000.16;5133928;27;19972;-64
2022/07/31 10:15:56;;;;;;;;;;;;;;;25.94;63.52;97991.97;5144630;27;19928;-64
2022/07/31 10:18:26;;;;;;;;;;;;;;;26.09;65.12;97993.81;5144739;27;19989;-63
2022/07/31 10:20:54;;;;;;;;;;;;;;;26.30;65.78;97988.00;5132574;27;19930;-64
2022/07/31 10:23:22;;;;;;;;;;;;;;;26.61;65.34;97984.22;5141054;27;19957;-64
2022/07/31 10:25:51;;;;;;;;;;;;;;;26.78;61.97;97986.44;5143628;27;20198;-64
2022/07/31 10:28:17;;;;;;;;;;;;;;;26.62;60.50;97978.34;5144467;27;19923;-64
2022/07/31 10:30:45;;;;;;;;;;;;;;;26.99;60.89;97977.78;5141876;27;19945;-64
2022/07/31 10:33:11;;;;;;;;;;;;;;;27.11;60.19;97969.38;5140924;27;19931;-65
2022/07/31 10:35:42;;;;;;;;;;;;;;;27.10;59.70;97976.00;5142317;27;19943;-64
2022/07/31 10:38:12;;;;;;;;;;;;;;;27.08;55.83;97975.59;5144517;27;19924;-64
2022/07/31 10:40:42;;;;;;;;;;;;;;;26.95;55.11;97969.53;5142615;27;19963;-65
2022/07/31 10:43:17;;;;;;;;;;;;;;;27.11;54.46;97977.59;5133587;27;19923;-65
2022/07/31 10:45:47;;;;;;;;;;;;;;;27.15;50.11;97972.94;5143077;27;19981;-65
2022/07/31 10:48:14;;;;;;;;;;;;;;;27.27;51.17;97962.53;5144678;27;19923;-64
2022/07/31 10:50:42;;;;;;;;;;;;;;;27.21;47.97;97958.53;5142461;27;19920;-65
2022/07/31 10:53:09;;;;;;;;;;;;;;;27.18;53.19;97955.75;5140684;27;19996;-64
2022/07/31 10:55:35;;;;;;;;;;;;;;;27.40;49.49;97963.13;5141775;27;19928;-65
2022/07/31 10:58:09;;;;;;;;;;;;;;;27.39;53.23;97950.56;5143851;27;20474;-64
2022/07/31 11:00:36;;;;;;;;;;;;;;;27.68;52.34;97958.03;5142557;27;19939;-64
2022/07/31 11:03:11;;;;;;;;;;;;;;;27.68;51.96;97955.28;5140478;27;19924;-64
2022/07/31 11:05:38;;;;;;;;;;;;;;;27.76;51.23;97940.47;5141663;27;19977;-64
2022/07/31 11:08:07;;;;;;;;;;;;;;;27.89;51.00;97941.78;5143895;27;19987;-64
2022/07/31 11:10:34;;;;;;;;;;;;;;;27.87;49.72;97952.38;5142640;27;19930;-64
2022/07/31 11:13:00;;;;;;;;;;;;;;;27.98;48.59;97943.47;5132696;27;19931;-65
2022/07/31 11:15:27;;;;;;;;;;;;;;;28.06;48.09;97950.63;5140378;27;19923;-63
2022/07/31 11:17:53;;;;;;;;;;;;;;;28.10;49.06;97940.47;5132100;27;20286;-64
2022/07/31 11:20:24;;;;;;;;;;;;;;;28.03;49.27;97941.16;5140175;27;19966;-63
2022/07/31 11:22:55;;;;;;;;;;;;;;;27.97;49.64;97939.13;5143445;27;19935;-64
2022/07/31 11:25:23;;;;;;;;;;;;;;;28.17;47.55;97930.34;5143812;27;19987;-66
2022/07/31 11:27:49;;;;;;;;;;;;;;;28.15;49.30;97934.63;5140336;27;19935;-64
2022/07/31 11:30:16;;;;;;;;;;;;;;;28.32;47.14;97926.56;5139066;27;19923;-64
2022/07/31 11:32:47;;;;;;;;;;;;;;;28.34;47.79;97935.22;5142412;27;19966;-64
2022/07/31 11:35:23;;;;;;;;;;;;;;;28.35;48.55;97925.00;5143525;27;19963;-64
2022/07/31 11:37:49;;;;;;;;;;;;;;;28.43;47.92;97923.91;5138421;27;19923;-64
2022/07/31 11:40:16;;;;;;;;;;;;;;;28.24;46.87;97937.88;5140040;27;19924;-64
2022/07/31 11:42:44;;;;;;;;;;;;;;;28.14;46.03;97913.81;5139591;27;19928;-64
2022/07/31 11:45:13;;;;;;;;;;;;;;;28.27;45.11;97912.38;5139761;27;19959;-64
2022/07/31 11:47:40;;;;;;;;;;;;;;;28.28;46.57;97911.22;5140564;27;19924;-64
2022/07/31 11:50:09;;;;;;;;;;;;;;;28.45;43.37;97915.28;5142992;27;19923;-64
2022/07/31 11:52:35;;;;;;;;;;;;;;;28.28;44.19;97911.22;5141933;27;19950;-64
2022/07/31 11:55:05;;;;;;;;;;;;;;;28.35;43.71;97914.00;5139508;27;19951;-64
2022/07/31 11:57:32;;;;;;;;;;;;;;;28.61;41.92;97900.13;5140212;27;19924;-63
2022/07/31 12:00:05;;;;;;;;;;;;;;;28.43;44.04;97904.69;5142985;27;19973;-64
2022/07/31 12:02:32;;;;;;;;;;;;;;;28.42;41.84;97903.09;5142049;27;19924;-64
2022/07/31 12:05:01;;;;;;;;;;;;;;;28.51;41.89;97892.56;5139340;27;19924;-64
2022/07/31 12:07:28;;;;;;;;;;;;;;;28.47;43.65;97888.22;5139480;27;19930;-64
2022/07/31 12:09:55;;;;;;;;;;;;;;;28.60;41.42;97892.25;5142490;27;19935;-64
2022/07/31 12:12:21;;;;;;;;;;;;;;;28.42;43.61;97892.91;5135854;27;19924;-65
2022/07/31 12:14:48;;;;;;;;;;;;;;;28.54;43.38;97885.53;5138850;27;19938;-64
2022/07/31 12:17:20;;;;;;;;;;;;;;;28.86;40.26;97890.13;5139104;27;19931;-64
2022/07/31 12:19:47;;;;;;;;;;;;;;;28.71;41.53;97882.94;5141973;27;19970;-64
2022/07/31 12:22:14;;;;;;;;;;;;;;;28.75;40.68;97880.22;5142508;27;19923;-64
2022/07/31 12:24:41;;;;;;;;;;;;;;;28.49;41.94;97870.19;5140459;27;19950;-64
2022/07/31 12:27:08;;;;;;;;;;;;;;;28.69;42.10;97874.28;5138815;27;19958;-65
2022/07/31 12:29:35;;;;;;;;;;;;;;;28.48;43.50;97857.63;5140053;27;19952;-65
2022/07/31 12:32:02;;;;;;;;;;;;;;;28.79;42.43;97873.56;5142476;27;19919;-64
2022/07/31 12:34:31;;;;;;;;;;;;;;;28.95;41.94;97862.28;5142253;27;19923;-64
2022/07/31 12:37:01;;;;;;;;;;;;;;;28.83;43.41;97866.13;5138920;27;19930;-64
2022/07/31 12:39:27;;;;;;;;;;;;;;;28.67;44.55;97873.88;5139207;27;19924;-64
2022/07/31 12:41:54;;;;;;;;;;;;;;;28.78;41.95;97862.97;5139595;28;19959;-64
2022/07/31 12:44:20;;;;;;;;;;;;;;;28.87;42.60;97857.91;5138147;28;20447;-64
2022/07/31 12:46:47;;;;;;;;;;;;;;;28.95;42.17;97859.53;5139384;28;19949;-64
2022/07/31 12:49:13;;;;;;;;;;;;;;;28.93;42.93;97857.16;5142239;27;19924;-64
2022/07/31 12:51:41;;;;;;;;;;;;;;;28.93;43.39;97857.16;5144920;27;19963;-65